< < Back
Terminal Aerodrome Forecast


Current Version              Previous Versions:   1  2  3  4  5  6  7  8  9  

Terminal Aerodrome Forecast

821
FTUS42 KTAE 311725
TAFABY
TAF
KABY 311725Z 3118/0118 07010KT P6SM VCSH SCT040 SCT250
     FM010400 13004KT P6SM OVC025=

Latest METAR

727
SAUS70 KWBC 312300 RRM
MTRABY
METAR KABY 312253Z 7SM -RA FEW050 OVC090 27/24 A2987 RMK AO2 SLP111
P0019 T02670239


USA.gov is the U.S. government's official web portal to all federal, state and local government web resources and services.